Terminal Aerodrome Forecast
Issued by NWS Pocatello, ID

Home | Current Version | Previous Version | Text Only | Print | Product List | Glossary On
Versions: 1 2 3 4 5 6 7 8 9 10 11 12 13 14 15 16 17 18 19 20 21
000
FTUS45 KPIH 202300 AAA
TAFPIH
TAF AMD
KPIH 202350Z 2100/2124 19015KT P6SM VCTS FEW060CB SCT120 SCT200
      TEMPO 2100/2101 VRB25G40KT P6SM -TSRA BKN060CB OVC120
     FM210200 16008KT P6SM VCSH SCT120 BKN180
     FM210400 07006KT P6SM VCSH FEW060 BKN120 BKN180
     FM210900 18006KT P6SM VCSH BKN080 BKN130 BKN180
     FM211200 17006KT P6SM SCT060 BKN100 OVC160=

USA.gov is the U.S. government's official web portal to all federal, state and local government web resources and services.